Terminal Aerodrome Forecast
Issued by NWS Charleston, WV

Current Version | Previous Version | Graphics & Text | Print | Product List | Glossary On
Versions: 1 2 3 4 5 6 7 8 9 10 11 12 13 14 15 16 17 18 19 20 21 22 23 24 25 26 27 28
000
FTUS41 KRLX 150500
TAFEKN
TAF
KEKN 150524Z 1506/1606 00000KT 1/4SM FG VV001
      TEMPO 1506/1509 1SM BR
     FM151300 00000KT 5SM BR SCT025
     FM151400 VRB03KT P6SM SCT025
     FM160400 25004KT P6SM BKN110=

USA.gov is the U.S. government's official web portal to all federal, state and local government web resources and services.